Time;durP1;ratioP1;P1;durP2;ratioP2;P2;SDS_P1;SDS_P2;PMS_P1;PMS_P2;Temp;Humidity;BMP_temperature;BMP_pressure;BME280_temperature;BME280_humidity;BME280_pressure;Samples;Min_cycle;Max_cycle;Signal;HPM_P1;HPM_P2
2021/08/21 00:01:50;;;;;;;5.50;5.10;;;19.80;99.90;;;;;;10472473;28;20229;-85
2021/08/21 00:06:52;;;;;;;5.50;5.10;;;19.80;99.90;;;;;;10467621;28;20220;-83
2021/08/21 00:11:56;;;;;;;5.43;4.93;;;19.80;99.90;;;;;;10448963;28;20216;-85
2021/08/21 00:16:58;;;;;;;5.40;4.90;;;19.80;99.90;;;;;;10484785;28;20628;-83
2021/08/21 00:22:01;;;;;;;6.27;5.77;;;19.80;99.90;;;;;;10449987;28;20224;-84
2021/08/21 00:27:05;;;;;;;6.37;5.77;;;19.80;99.90;;;;;;10457444;28;20243;-85
2021/08/21 00:32:07;;;;;;;7.23;5.27;;;19.80;99.90;;;;;;10452907;28;20639;-85
2021/08/21 00:37:09;;;;;;;5.00;4.60;;;19.70;99.90;;;;;;10452339;28;20559;-83
2021/08/21 00:42:13;;;;;;;5.90;5.40;;;19.80;99.90;;;;;;10452285;28;20228;-83
2021/08/21 00:47:17;;;;;;;4.17;3.87;;;19.70;99.90;;;;;;10474009;28;20213;-83
2021/08/21 00:52:21;;;;;;;5.70;5.30;;;19.70;99.90;;;;;;10467748;28;20212;-83
2021/08/21 00:57:26;;;;;;;6.03;5.43;;;19.70;99.90;;;;;;10473329;28;20287;-83
2021/08/21 01:02:30;;;;;;;5.27;4.77;;;19.70;99.90;;;;;;10446585;28;20216;-83
2021/08/21 01:07:34;;;;;;;5.70;5.20;;;19.60;99.90;;;;;;10496244;28;20220;-82
2021/08/21 01:12:41;;;;;;;6.17;5.57;;;19.60;99.90;;;;;;10470208;28;20704;-83
2021/08/21 01:17:43;;;;;;;5.10;4.77;;;19.60;99.90;;;;;;10478462;28;20576;-83
2021/08/21 01:22:48;;;;;;;5.63;5.17;;;19.60;99.90;;;;;;10459677;28;20217;-83
2021/08/21 01:28:07;;;;;;;6.83;6.13;;;19.60;99.90;;;;;;10459953;28;20247;-83
2021/08/21 01:33:22;;;;;;;5.47;5.07;;;19.70;99.90;;;;;;10456926;28;20712;-83
2021/08/21 01:38:25;;;;;;;6.07;5.57;;;19.70;99.90;;;;;;10481878;28;20666;-83
2021/08/21 01:43:54;;;;;;;6.20;5.70;;;19.60;99.90;;;;;;10475522;28;20212;-83
2021/08/21 01:48:57;;;;;;;5.20;4.80;;;19.70;99.90;;;;;;10458187;28;20224;-83
2021/08/21 01:54:00;;;;;;;5.90;5.33;;;19.60;99.90;;;;;;10463465;28;20286;-83
2021/08/21 01:59:08;;;;;;;5.70;5.20;;;19.50;99.90;;;;;;10482140;28;20215;-83
2021/08/21 02:04:24;;;;;;;6.10;5.60;;;19.40;99.90;;;;;;10458949;28;20215;-83
2021/08/21 02:09:29;;;;;;;6.00;5.50;;;19.40;99.90;;;;;;10446458;28;20237;-82
2021/08/21 02:14:34;;;;;;;5.47;5.07;;;19.30;99.90;;;;;;10466745;28;20287;-82
2021/08/21 02:19:36;;;;;;;6.47;6.00;;;19.30;99.90;;;;;;10473861;28;20300;-82
2021/08/21 02:24:52;;;;;;;6.70;6.20;;;19.20;99.90;;;;;;10436387;28;20204;-83
2021/08/21 02:29:56;;;;;;;5.60;5.20;;;19.10;99.90;;;;;;10465168;28;20781;-82
2021/08/21 02:34:58;;;;;;;6.20;5.70;;;19.00;99.90;;;;;;10479767;28;20216;-83
2021/08/21 02:40:02;;;;;;;6.50;6.00;;;18.90;99.90;;;;;;10479004;28;20251;-82
2021/08/21 02:45:08;;;;;;;5.70;5.30;;;18.90;99.90;;;;;;10445824;28;20200;-82
2021/08/21 02:50:10;;;;;;;6.70;6.20;;;18.80;99.90;;;;;;10470949;28;20232;-83
2021/08/21 02:55:13;;;;;;;5.83;5.33;;;18.70;99.90;;;;;;10501883;28;20683;-83
2021/08/21 03:00:21;;;;;;;5.90;5.50;;;18.70;99.90;;;;;;10460572;28;20218;-82
2021/08/21 03:05:28;;;;;;;6.37;5.87;;;18.70;99.90;;;;;;10502409;28;20192;-82
2021/08/21 03:10:32;;;;;;;6.17;5.67;;;18.60;99.90;;;;;;10464119;28;20229;-82
2021/08/21 03:15:38;;;;;;;6.20;5.70;;;18.60;99.90;;;;;;10489287;28;20263;-83
2021/08/21 03:20:40;;;;;;;6.80;6.30;;;18.60;99.90;;;;;;10475360;28;20230;-83
2021/08/21 03:25:42;;;;;;;6.03;5.47;;;18.50;99.90;;;;;;10492187;28;20204;-82
2021/08/21 03:30:47;;;;;;;6.50;5.90;;;18.50;99.90;;;;;;10491049;28;20224;-83
2021/08/21 03:35:56;;;;;;;9.63;6.30;;;18.50;99.90;;;;;;10511417;28;20216;-83
2021/08/21 03:41:01;;;;;;;6.53;5.93;;;18.40;99.90;;;;;;10459432;28;20221;-83
2021/08/21 03:46:06;;;;;;;6.10;5.70;;;18.40;99.90;;;;;;10432469;28;20215;-83
2021/08/21 03:51:08;;;;;;;6.53;5.97;;;18.30;99.90;;;;;;10469119;28;20600;-83
2021/08/21 03:56:16;;;;;;;6.93;6.33;;;18.30;99.90;;;;;;10446999;28;20209;-82
2021/08/21 04:01:27;;;;;;;5.80;5.40;;;18.30;99.90;;;;;;10454151;28;20229;-83
2021/08/21 04:06:42;;;;;;;5.97;5.37;;;18.20;99.90;;;;;;10465801;28;20234;-83
2021/08/21 04:11:50;;;;;;;6.77;6.17;;;18.20;99.90;;;;;;10450071;28;20233;-82
2021/08/21 04:16:54;;;;;;;6.20;5.60;;;18.20;99.90;;;;;;10450050;28;20205;-82
2021/08/21 04:21:56;;;;;;;5.93;5.53;;;18.20;99.90;;;;;;10468009;28;20759;-82
2021/08/21 04:27:08;;;;;;;6.37;5.87;;;18.20;99.90;;;;;;10483956;28;20657;-82
2021/08/21 04:32:14;;;;;;;5.50;5.10;;;18.20;99.90;;;;;;10467440;28;20692;-82
2021/08/21 04:37:17;;;;;;;7.33;5.17;;;18.20;99.90;;;;;;10468174;28;20211;-82
2021/08/21 04:42:19;;;;;;;5.80;5.40;;;18.20;99.90;;;;;;10444252;28;20229;-83
2021/08/21 04:47:23;;;;;;;7.17;5.83;;;18.20;99.90;;;;;;10428713;28;20277;-82
2021/08/21 04:52:26;;;;;;;6.30;5.70;;;18.20;99.90;;;;;;10479857;28;20287;-82
2021/08/21 04:57:29;;;;;;;6.03;5.63;;;18.20;99.90;;;;;;10464526;28;20204;-82
2021/08/21 05:02:33;;;;;;;6.13;5.67;;;18.20;99.90;;;;;;10481906;28;20307;-82
2021/08/21 05:07:36;;;;;;;5.77;5.27;;;18.30;99.90;;;;;;10459831;28;20234;-82
2021/08/21 05:12:38;;;;;;;6.30;5.73;;;18.30;99.90;;;;;;10464965;28;20228;-82
2021/08/21 05:17:55;;;;;;;5.97;5.47;;;18.40;99.90;;;;;;10476191;28;20558;-83
2021/08/21 05:23:17;;;;;;;6.60;5.83;;;18.50;99.90;;;;;;10482183;28;20576;-83
2021/08/21 05:28:19;;;;;;;4.80;4.50;;;18.60;99.90;;;;;;10478583;28;20700;-83
2021/08/21 05:33:24;;;;;;;9.53;5.67;;;18.70;99.90;;;;;;10465755;28;20723;-83
2021/08/21 05:38:26;;;;;;;7.30;5.40;;;18.80;99.90;;;;;;10483489;28;20231;-82
2021/08/21 05:43:29;;;;;;;5.47;5.07;;;18.80;99.90;;;;;;10455500;28;20224;-82
2021/08/21 05:48:32;;;;;;;5.70;5.30;;;19.00;99.90;;;;;;10502197;28;20224;-82
2021/08/21 05:53:35;;;;;;;7.00;5.73;;;19.00;99.90;;;;;;10392175;23;20226;-83
2021/08/21 05:58:37;;;;;;;6.47;5.97;;;19.10;99.90;;;;;;10353523;28;20202;-84
2021/08/21 06:03:40;;;;;;;6.47;5.97;;;19.20;99.90;;;;;;10353756;28;20272;-83
2021/08/21 06:08:52;;;;;;;7.10;6.60;;;19.40;99.90;;;;;;10355328;28;20500;-84
2021/08/21 06:14:04;;;;;;;7.50;6.90;;;19.50;99.90;;;;;;10350840;28;20218;-82
2021/08/21 06:19:13;;;;;;;8.57;6.33;;;19.60;99.90;;;;;;10342109;28;20670;-82
2021/08/21 06:24:16;;;;;;;8.03;7.40;;;19.80;99.90;;;;;;10322098;28;20202;-83
2021/08/21 06:29:35;;;;;;;7.50;6.90;;;19.80;99.90;;;;;;10335854;28;20226;-82
2021/08/21 06:35:05;;;;;;;6.90;6.30;;;19.90;99.90;;;;;;10353413;28;20211;-83
2021/08/21 06:40:10;;;;;;;7.80;7.20;;;19.90;99.90;;;;;;10324867;28;20230;-83
2021/08/21 06:45:12;;;;;;;8.00;7.40;;;20.00;99.90;;;;;;10326858;28;20207;-84
2021/08/21 06:50:17;;;;;;;7.73;7.13;;;20.10;99.90;;;;;;10343243;28;20231;-84
2021/08/21 06:55:20;;;;;;;7.97;7.17;;;20.20;99.90;;;;;;10367454;28;20257;-82
2021/08/21 07:00:33;;;;;;;7.90;7.30;;;20.30;99.90;;;;;;10333527;28;20233;-81
2021/08/21 07:05:43;;;;;;;7.70;7.10;;;20.40;99.90;;;;;;10361581;28;20206;-83
2021/08/21 07:10:55;;;;;;;7.73;7.07;;;20.50;99.90;;;;;;10327499;28;20250;-82
2021/08/21 07:16:04;;;;;;;7.27;6.63;;;20.50;99.90;;;;;;10342218;28;20602;-81
2021/08/21 07:21:15;;;;;;;8.10;7.50;;;20.50;99.90;;;;;;10343754;28;20223;-83
2021/08/21 07:26:20;;;;;;;8.23;7.43;;;20.50;99.90;;;;;;10334413;28;20265;-83
2021/08/21 07:31:30;;;;;;;9.93;7.23;;;20.60;99.90;;;;;;10339592;28;20226;-83
2021/08/21 07:36:54;;;;;;;8.20;7.50;;;20.60;99.90;;;;;;10330757;28;20213;-83
2021/08/21 07:41:59;;;;;;;7.97;6.60;;;20.70;99.90;;;;;;10333411;28;20231;-83
2021/08/21 07:47:01;;;;;;;6.87;6.33;;;20.80;99.90;;;;;;10333221;28;20218;-82
2021/08/21 07:52:21;;;;;;;;;;;;;;;;;;;;;
2021/08/21 07:57:36;;;;;;;7.03;6.40;;;21.20;99.90;;;;;;10347578;28;20198;-84
2021/08/21 08:08:05;;;;;;;6.20;5.80;;;21.80;99.90;;;;;;10341505;28;20222;-81
2021/08/21 08:13:07;;;;;;;5.27;4.87;;;21.90;99.90;;;;;;10334564;28;20230;-81
2021/08/21 08:18:10;;;;;;;6.53;6.00;;;22.10;99.90;;;;;;10362234;28;20206;-84
2021/08/21 08:23:13;;;;;;;7.10;6.60;;;22.20;99.90;;;;;;10362501;28;20234;-82
2021/08/21 08:28:15;;;;;;;6.83;6.17;;;22.30;99.90;;;;;;10334400;28;20223;-82
2021/08/21 08:33:21;;;;;;;5.83;5.43;;;22.50;99.90;;;;;;10330896;28;20600;-82
2021/08/21 08:38:25;;;;;;;6.00;5.40;;;22.60;99.90;;;;;;10353213;28;20201;-83
2021/08/21 08:43:28;;;;;;;5.57;5.07;;;22.80;99.90;;;;;;10348327;28;20294;-81
2021/08/21 08:48:34;;;;;;;5.50;5.10;;;23.00;99.90;;;;;;10348733;28;20226;-81
2021/08/21 08:53:38;;;;;;;5.13;4.73;;;23.20;99.90;;;;;;10370832;28;20768;-82
2021/08/21 08:58:40;;;;;;;5.63;5.20;;;23.30;99.90;;;;;;10370948;28;20626;-82
2021/08/21 09:03:42;;;;;;;6.73;6.23;;;23.40;99.90;;;;;;10358597;28;20269;-83
2021/08/21 09:08:46;;;;;;;6.17;5.57;;;23.40;99.90;;;;;;10343959;28;20257;-82
2021/08/21 09:13:49;;;;;;;6.03;5.53;;;23.50;99.90;;;;;;10354991;28;20670;-83
2021/08/21 09:19:03;;;;;;;7.70;7.10;;;23.50;99.90;;;;;;10355935;28;20214;-84
2021/08/21 09:24:26;;;;;;;7.23;5.47;;;23.50;99.90;;;;;;10360803;28;20206;-83
2021/08/21 09:29:29;;;;;;;7.20;6.53;;;23.70;99.90;;;;;;10355241;28;20218;-81
2021/08/21 09:34:31;;;;;;;5.30;5.00;;;23.80;99.90;;;;;;10378487;28;20226;-83
2021/08/21 09:39:38;;;;;;;11.60;7.50;;;24.10;99.90;;;;;;10344065;28;20261;-82
2021/08/21 09:44:41;;;;;;;6.37;5.90;;;24.60;99.90;;;;;;10343821;28;20227;-84
2021/08/21 09:49:45;;;;;;;6.03;5.43;;;25.00;99.90;;;;;;10324118;28;20740;-84
2021/08/21 09:55:05;;;;;;;5.50;5.10;;;25.30;99.90;;;;;;10315209;28;20206;-84
2021/08/21 10:00:09;;;;;;;5.23;4.80;;;25.70;99.90;;;;;;10312728;28;20239;-82
2021/08/21 10:05:20;;;;;;;6.10;5.60;;;26.00;99.90;;;;;;10317593;28;20256;-83
2021/08/21 10:10:28;;;;;;;6.07;5.57;;;26.40;99.90;;;;;;10333791;28;20223;-83
2021/08/21 10:15:30;;;;;;;6.30;5.73;;;26.70;99.90;;;;;;10314375;28;20207;-83
2021/08/21 10:20:32;;;;;;;7.03;6.53;;;26.80;99.90;;;;;;10316525;28;20230;-83
2021/08/21 10:25:37;;;;;;;5.63;5.23;;;26.60;99.20;;;;;;10339312;28;20211;-83
2021/08/21 10:30:45;;;;;;;7.30;6.60;;;26.40;99.40;;;;;;10333334;28;20681;-82
2021/08/21 10:35:49;;;;;;;6.80;6.20;;;26.10;99.40;;;;;;10335943;28;20265;-83
2021/08/21 10:40:52;;;;;;;5.60;5.20;;;25.80;99.90;;;;;;10327509;28;20709;-82
2021/08/21 10:45:55;;;;;;;7.13;6.63;;;25.60;99.90;;;;;;10315697;28;20257;-83
2021/08/21 10:50:59;;;;;;;7.07;6.37;;;25.50;99.90;;;;;;10341483;28;20235;-82
2021/08/21 10:56:05;;;;;;;7.43;6.80;;;25.30;99.90;;;;;;10346667;28;20766;-83
2021/08/21 11:01:09;;;;;;;8.57;5.80;;;25.20;99.90;;;;;;10328048;28;20246;-82
2021/08/21 11:06:29;;;;;;;7.73;6.10;;;25.10;99.90;;;;;;10328603;28;20586;-82
2021/08/21 11:11:40;;;;;;;7.77;6.93;;;25.00;99.90;;;;;;10335700;28;20298;-82
2021/08/21 11:16:50;;;;;;;6.60;6.03;;;25.00;99.90;;;;;;10353439;28;20670;-82
2021/08/21 11:22:12;;;;;;;7.30;6.70;;;25.00;99.50;;;;;;10317952;28;20230;-82
2021/08/21 11:27:32;;;;;;;6.63;6.13;;;24.90;99.90;;;;;;10373879;28;20234;-83
2021/08/21 11:32:41;;;;;;;7.60;7.00;;;24.90;99.90;;;;;;10301467;28;20222;-82
2021/08/21 11:37:48;;;;;;;6.70;6.20;;;24.90;99.90;;;;;;10326863;28;20214;-83
2021/08/21 11:43:01;;;;;;;8.10;7.40;;;24.90;99.90;;;;;;10343776;28;20656;-83
2021/08/21 11:48:07;;;;;;;17.00;14.67;;;24.90;99.90;;;;;;10347083;28;20225;-84
2021/08/21 11:53:12;;;;;;;7.10;6.50;;;24.90;99.90;;;;;;10385923;22;20690;-83
2021/08/21 11:58:16;;;;;;;8.93;8.13;;;24.90;99.90;;;;;;10364973;28;20201;-83
2021/08/21 12:03:33;;;;;;;6.83;6.33;;;24.80;99.90;;;;;;10397131;28;20640;-83
2021/08/21 12:08:35;;;;;;;7.50;6.90;;;24.90;99.90;;;;;;10398845;28;20210;-83
2021/08/21 12:13:40;;;;;;;10.47;9.47;;;25.00;99.60;;;;;;10371887;28;20352;-83
2021/08/21 12:18:45;;;;;;;6.30;5.90;;;25.00;99.90;;;;;;10346898;28;20292;-83
2021/08/21 12:24:45;;;;;;;;;;;;;;;;;;;;;
2021/08/21 12:30:27;;;;;;;5.70;5.20;;;24.90;99.90;;;;;;10370429;28;20214;-84
2021/08/21 12:35:35;;;;;;;5.57;5.17;;;24.90;99.10;;;;;;10353596;28;20209;-84
2021/08/21 12:40:37;;;;;;;6.90;6.40;;;24.90;97.20;;;;;;10358112;28;20226;-84
2021/08/21 12:45:45;;;;;;;6.50;6.00;;;25.10;97.40;;;;;;10360982;28;20198;-84
2021/08/21 12:50:47;;;;;;;5.50;5.10;;;25.20;97.00;;;;;;10381749;28;20307;-84
2021/08/21 12:56:08;;;;;;;5.77;5.30;;;25.20;98.90;;;;;;10398318;28;20665;-84
2021/08/21 13:01:11;;;;;;;6.93;6.23;;;25.20;99.30;;;;;;10353015;28;20250;-84
2021/08/21 13:06:18;;;;;;;6.00;5.60;;;25.10;99.90;;;;;;10397849;28;20281;-84
2021/08/21 13:11:21;;;;;;;6.30;5.40;;;25.10;97.30;;;;;;10409758;28;20698;-84
2021/08/21 13:16:24;;;;;;;6.23;5.63;;;25.20;98.50;;;;;;10391953;28;20201;-84
2021/08/21 13:21:26;;;;;;;6.77;6.13;;;25.20;99.20;;;;;;10377229;28;20234;-84
2021/08/21 13:26:29;;;;;;;5.00;4.70;;;25.10;99.90;;;;;;10380515;28;20229;-84
2021/08/21 13:31:33;;;;;;;6.33;5.80;;;25.10;99.80;;;;;;10406189;28;20230;-84
2021/08/21 13:36:37;;;;;;;5.83;5.30;;;25.10;99.90;;;;;;10372943;28;20205;-84
2021/08/21 13:41:39;;;;;;;5.77;5.37;;;25.00;99.90;;;;;;10386959;28;20221;-84
2021/08/21 13:46:43;;;;;;;5.73;5.23;;;25.00;99.70;;;;;;10382461;28;20198;-84
2021/08/21 13:51:45;;;;;;;6.70;6.10;;;25.00;99.90;;;;;;10395130;28;20697;-84
2021/08/21 13:56:48;;;;;;;5.80;5.40;;;25.00;98.40;;;;;;10390959;28;20652;-84
2021/08/21 14:01:54;;;;;;;6.10;5.23;;;25.00;99.90;;;;;;10361445;28;20221;-84
2021/08/21 14:06:56;;;;;;;5.00;4.70;;;25.00;98.70;;;;;;10354619;28;20241;-84
2021/08/21 14:11:58;;;;;;;5.77;5.33;;;25.00;98.30;;;;;;10385378;28;20689;-84
2021/08/21 14:17:02;;;;;;;6.70;5.77;;;25.00;99.10;;;;;;10400710;28;20207;-84
2021/08/21 14:22:05;;;;;;;6.13;5.53;;;25.00;99.90;;;;;;10351944;28;20226;-84
2021/08/21 14:27:08;;;;;;;6.10;5.60;;;25.00;99.90;;;;;;10380391;28;20286;-84
2021/08/21 14:32:11;;;;;;;6.70;6.20;;;25.10;99.90;;;;;;10405715;28;20652;-84
2021/08/21 14:37:13;;;;;;;6.50;5.97;;;25.40;98.50;;;;;;10393649;28;20194;-84
2021/08/21 14:42:15;;;;;;;5.90;5.50;;;25.70;98.70;;;;;;10398080;28;20638;-84
2021/08/21 14:47:20;;;;;;;5.47;5.07;;;25.80;97.70;;;;;;10379474;28;20296;-84
2021/08/21 14:52:22;;;;;;;5.50;5.10;;;25.80;99.20;;;;;;10411251;28;20284;-84
2021/08/21 14:57:25;;;;;;;6.47;5.80;;;25.60;99.80;;;;;;10415162;28;20198;-84
2021/08/21 15:02:28;;;;;;;6.30;5.70;;;25.50;98.60;;;;;;10419813;28;20218;-84
2021/08/21 15:07:30;;;;;;;6.40;5.53;;;25.50;99.10;;;;;;10386080;28;20226;-84
2021/08/21 15:12:32;;;;;;;5.30;4.90;;;25.50;98.20;;;;;;10388985;28;20261;-84
2021/08/21 15:17:36;;;;;;;6.90;6.20;;;25.30;99.30;;;;;;10403719;28;20204;-84
2021/08/21 15:22:38;;;;;;;5.33;4.93;;;25.40;98.60;;;;;;10378534;28;20686;-84
2021/08/21 15:27:40;;;;;;;6.00;5.57;;;25.30;98.60;;;;;;10394466;28;20277;-84
2021/08/21 15:32:44;;;;;;;6.30;5.90;;;25.30;99.00;;;;;;10384563;28;20686;-84
2021/08/21 15:37:46;;;;;;;6.17;5.67;;;25.30;98.10;;;;;;10400241;28;20680;-84
2021/08/21 15:42:48;;;;;;;6.27;5.80;;;25.30;98.50;;;;;;10394936;28;20217;-84
2021/08/21 15:47:52;;;;;;;5.60;5.20;;;25.30;98.50;;;;;;10380579;28;20202;-84
2021/08/21 15:52:55;;;;;;;6.20;5.67;;;25.40;98.50;;;;;;10417581;28;20214;-84
2021/08/21 15:57:57;;;;;;;6.73;6.20;;;25.30;98.80;;;;;;10399624;28;20280;-84
2021/08/21 16:03:01;;;;;;;6.60;6.10;;;25.30;98.60;;;;;;10408933;28;20856;-84
2021/08/21 16:08:03;;;;;;;7.40;6.33;;;25.30;98.50;;;;;;10364620;28;20297;-84
2021/08/21 16:13:06;;;;;;;6.90;6.30;;;25.30;98.30;;;;;;10417942;28;20760;-84
2021/08/21 16:18:09;;;;;;;6.43;5.93;;;25.30;98.20;;;;;;10398480;28;20240;-84
2021/08/21 16:23:12;;;;;;;6.90;6.13;;;25.40;97.90;;;;;;10400717;28;20312;-84
2021/08/21 16:28:18;;;;;;;6.90;6.30;;;25.40;98.70;;;;;;10362280;28;20233;-84
2021/08/21 16:33:26;;;;;;;6.60;6.00;;;25.40;98.70;;;;;;10346838;28;20226;-84
2021/08/21 16:38:34;;;;;;;6.30;5.80;;;25.30;99.50;;;;;;10378856;28;20205;-84
2021/08/21 16:43:37;;;;;;;7.03;6.30;;;25.20;99.40;;;;;;10378190;28;20245;-84
2021/08/21 16:48:42;;;;;;;6.37;5.87;;;25.10;99.80;;;;;;10363360;28;20197;-84
2021/08/21 16:53:45;;;;;;;7.57;6.33;;;25.10;99.60;;;;;;10361440;28;20591;-84
2021/08/21 16:58:56;;;;;;;7.20;6.50;;;25.00;99.30;;;;;;10364402;28;20194;-84
2021/08/21 17:04:03;;;;;;;6.37;5.87;;;25.00;99.40;;;;;;10376834;28;20586;-85
2021/08/21 17:09:06;;;;;;;6.50;5.97;;;25.00;99.90;;;;;;10374135;28;20210;-84
2021/08/21 17:14:09;;;;;;;6.93;6.33;;;24.90;99.90;;;;;;10372668;28;20219;-84
2021/08/21 17:19:14;;;;;;;6.63;6.13;;;24.90;99.90;;;;;;10348710;28;20195;-84
2021/08/21 17:24:22;;;;;;;6.90;6.00;;;24.80;99.90;;;;;;10366541;28;20570;-84
2021/08/21 17:29:28;;;;;;;6.43;5.93;;;24.70;99.90;;;;;;10360998;28;20213;-84
2021/08/21 17:34:33;;;;;;;6.17;5.70;;;24.60;99.90;;;;;;10362901;28;20605;-84
2021/08/21 17:39:43;;;;;;;6.40;5.90;;;24.50;99.90;;;;;;10362100;28;20186;-84
2021/08/21 17:44:48;;;;;;;6.60;6.00;;;24.40;99.90;;;;;;10366125;28;20229;-85
2021/08/21 17:49:55;;;;;;;5.70;5.20;;;24.20;99.90;;;;;;10381565;28;20256;-84
2021/08/21 18:27:13;;;;;;;8.10;6.50;;;23.90;99.90;;;;;;10229799;28;20265;-84
2021/08/21 19:53:49;;;;;;;7.60;6.90;;;22.70;99.90;;;;;;10184416;28;20265;-83
2021/08/21 21:54:58;;;;;;;7.33;6.60;;;21.90;99.90;;;;;;10493897;28;20232;-84
2021/08/21 23:48:22;;;;;;;10.03;9.00;;;21.40;99.90;;;;;;10503322;22;20278;-84
2021/08/21 23:54:24;;;;;;;11.80;10.70;;;21.40;99.90;;;;;;10335029;22;20258;-82
2021/08/21 23:59:26;;;;;;;10.37;9.43;;;21.40;99.90;;;;;;10388637;28;20213;-83
